NCAR-RAP Real-Time Weather Data

Output produced by METARs form (10 April 2020  07:20 UTC)
found at http://weather.rap.ucar.edu/surface/
 
KFWA 100654Z 29012KT 10SM FEW023 FEW060 01/M03 A2984 RMK AO2 SLP110 T00111028